Time;durP1;ratioP1;P1;durP2;ratioP2;P2;SDS_P1;SDS_P2;PMS_P1;PMS_P2;Temp;Humidity;BMP_temperature;BMP_pressure;BME280_temperature;BME280_humidity;BME280_pressure;Samples;Min_cycle;Max_cycle;Signal;HPM_P1;HPM_P2
2023/07/08 00:00:23;;;;;;;6.05;3.88;;;21.30;97.90;;;;;;5012291;28;20034;-40
2023/07/08 00:02:50;;;;;;;6.53;4.38;;;21.30;97.90;;;;;;5012299;28;20025;-38
2023/07/08 00:05:17;;;;;;;6.70;4.13;;;21.30;97.90;;;;;;5012778;28;20084;-40
2023/07/08 00:07:44;;;;;;;6.03;3.92;;;21.30;98.30;;;;;;5014236;28;20102;-37
2023/07/08 00:10:14;;;;;;;6.15;4.47;;;21.30;97.90;;;;;;5011637;28;20512;-40
2023/07/08 00:12:40;;;;;;;5.72;4.22;;;21.30;97.90;;;;;;5012404;28;20429;-39
2023/07/08 00:15:08;;;;;;;6.70;4.10;;;21.30;97.90;;;;;;5012951;28;20077;-39
2023/07/08 00:17:33;;;;;;;6.28;4.00;;;21.30;97.90;;;;;;5012742;28;20092;-39
2023/07/08 00:19:59;;;;;;;6.20;4.20;;;21.30;97.90;;;;;;5011701;28;20037;-40
2023/07/08 00:22:25;;;;;;;5.95;4.20;;;21.30;97.90;;;;;;5013040;28;20030;-40
2023/07/08 00:24:51;;;;;;;5.40;3.90;;;21.30;97.90;;;;;;5011743;28;20060;-40
2023/07/08 00:27:17;;;;;;;5.43;3.95;;;21.30;97.90;;;;;;5011895;28;20058;-40
2023/07/08 00:29:43;;;;;;;5.35;4.22;;;21.30;97.90;;;;;;5012584;28;20022;-40
2023/07/08 00:32:15;;;;;;;6.07;4.70;;;21.30;97.90;;;;;;5012343;28;20022;-39
2023/07/08 00:34:41;;;;;;;7.90;4.25;;;21.30;98.00;;;;;;5012685;28;20117;-40
2023/07/08 00:37:13;;;;;;;6.35;4.70;;;21.30;98.00;;;;;;5011685;28;20025;-40
2023/07/08 00:39:39;;;;;;;5.72;4.32;;;21.30;97.90;;;;;;5011476;28;20061;-39
2023/07/08 00:42:17;;;;;;;6.25;4.40;;;21.30;98.00;;;;;;5011991;28;20030;-40
2023/07/08 00:44:44;;;;;;;7.05;4.53;;;21.30;98.00;;;;;;5011992;28;20080;-39
2023/07/08 00:47:11;;;;;;;5.90;4.25;;;21.30;98.00;;;;;;5011897;28;20524;-39
2023/07/08 00:49:49;;;;;;;7.15;4.40;;;21.30;98.00;;;;;;5011579;28;20397;-39
2023/07/08 00:52:42;;;;;;;5.65;4.60;;;21.30;98.00;;;;;;5011922;28;20056;-40
2023/07/08 00:55:09;;;;;;;7.57;4.40;;;21.30;98.00;;;;;;5008904;28;20398;-39
2023/07/08 00:57:39;;;;;;;7.28;4.50;;;21.30;98.00;;;;;;5010216;28;20029;-39
2023/07/08 01:00:11;;;;;;;7.13;4.65;;;21.30;98.00;;;;;;5011137;28;20076;-39
2023/07/08 01:02:51;;;;;;;5.10;3.90;;;21.30;98.00;;;;;;5012811;28;20489;-40
2023/07/08 01:05:25;;;;;;;6.63;4.60;;;21.30;98.00;;;;;;5011359;28;20069;-41
2023/07/08 01:07:55;;;;;;;5.63;4.47;;;21.30;98.00;;;;;;5012527;28;20061;-40
2023/07/08 01:10:33;;;;;;;6.38;4.25;;;21.30;98.00;;;;;;5011065;28;20042;-40
2023/07/08 01:13:03;;;;;;;4.75;3.78;;;21.30;98.00;;;;;;5011339;28;20026;-40
2023/07/08 01:15:38;;;;;;;5.22;4.20;;;21.20;98.00;;;;;;5011424;28;20014;-39
2023/07/08 01:18:04;;;;;;;6.57;4.40;;;21.20;98.00;;;;;;5011370;28;20022;-39
2023/07/08 01:20:30;;;;;;;8.73;4.68;;;21.30;98.00;;;;;;5010933;28;20084;-42
2023/07/08 01:22:56;;;;;;;6.15;4.57;;;21.30;98.00;;;;;;5011154;28;20140;-40
2023/07/08 01:25:22;;;;;;;6.88;4.40;;;21.20;98.00;;;;;;5011555;28;20037;-39
2023/07/08 01:27:53;;;;;;;8.27;4.60;;;21.20;98.00;;;;;;5012663;28;20465;-40
2023/07/08 01:30:18;;;;;;;7.15;4.30;;;21.30;98.00;;;;;;5010988;28;20105;-42
2023/07/08 01:32:56;;;;;;;6.45;4.40;;;21.20;98.00;;;;;;5011467;28;20105;-39
2023/07/08 01:35:22;;;;;;;6.90;4.38;;;21.20;98.00;;;;;;5011110;28;20033;-39
2023/07/08 01:37:57;;;;;;;5.75;4.60;;;21.20;98.00;;;;;;5011264;28;20028;-40
2023/07/08 01:40:32;;;;;;;9.05;4.85;;;21.20;98.00;;;;;;5010987;28;20026;-38
2023/07/08 01:42:59;;;;;;;5.70;4.30;;;21.20;98.00;;;;;;5011053;28;20040;-40
2023/07/08 01:45:30;;;;;;;5.13;4.07;;;21.20;98.00;;;;;;5010944;28;20026;-38
2023/07/08 01:48:20;;;;;;;7.60;4.38;;;21.20;98.00;;;;;;5010933;28;20026;-38
2023/07/08 01:50:57;;;;;;;6.28;4.60;;;21.20;98.00;;;;;;5011890;28;20026;-39
2023/07/08 01:53:34;;;;;;;6.35;4.50;;;21.20;98.00;;;;;;5015236;28;20030;-39
2023/07/08 01:56:00;;;;;;;7.32;4.50;;;21.20;98.00;;;;;;5014682;28;20148;-37
2023/07/08 01:58:26;;;;;;;6.25;4.15;;;21.20;98.00;;;;;;5015008;28;20101;-40
2023/07/08 02:00:52;;;;;;;6.18;4.20;;;21.20;98.00;;;;;;5014405;28;20033;-39
2023/07/08 02:03:18;;;;;;;6.60;4.35;;;21.20;98.00;;;;;;5014371;28;20026;-39
2023/07/08 02:05:43;;;;;;;6.80;4.38;;;21.20;98.00;;;;;;5014447;28;20038;-40
2023/07/08 02:08:09;;;;;;;6.43;4.53;;;21.20;98.00;;;;;;5014429;28;20501;-39
2023/07/08 02:10:36;;;;;;;8.85;5.35;;;21.20;98.00;;;;;;5014101;28;20102;-39
2023/07/08 02:13:02;;;;;;;6.05;4.57;;;21.20;98.00;;;;;;5014478;28;20104;-40
2023/07/08 02:15:28;;;;;;;5.40;4.53;;;21.20;98.00;;;;;;5015215;28;20448;-40
2023/07/08 02:17:53;;;;;;;6.32;4.38;;;21.20;98.00;;;;;;5014841;28;20026;-40
2023/07/08 02:20:19;;;;;;;6.00;4.70;;;21.20;98.00;;;;;;5013571;28;20048;-40
2023/07/08 02:22:45;;;;;;;5.53;4.20;;;21.20;98.00;;;;;;5014198;28;20026;-39
2023/07/08 02:25:11;;;;;;;6.65;4.60;;;21.20;98.00;;;;;;5014076;28;20026;-40
2023/07/08 02:27:37;;;;;;;6.32;4.47;;;21.20;98.00;;;;;;5013982;28;20652;-39
2023/07/08 02:30:04;;;;;;;6.80;4.72;;;21.20;98.00;;;;;;5013750;28;20026;-39
2023/07/08 02:32:29;;;;;;;6.18;4.30;;;21.20;98.00;;;;;;5015283;28;20581;-39
2023/07/08 02:34:55;;;;;;;7.90;4.50;;;21.20;98.00;;;;;;5013886;28;20433;-39
2023/07/08 02:37:21;;;;;;;7.22;4.47;;;21.20;98.00;;;;;;5013905;28;20028;-40
2023/07/08 02:39:46;;;;;;;6.95;4.72;;;21.20;98.00;;;;;;5014118;28;20022;-40
2023/07/08 02:42:12;;;;;;;7.78;5.15;;;21.20;98.00;;;;;;5014251;28;20025;-40
2023/07/08 02:44:37;;;;;;;7.15;4.38;;;21.20;98.00;;;;;;5013650;28;20018;-39
2023/07/08 02:47:03;;;;;;;6.53;4.32;;;21.20;98.00;;;;;;5013631;28;20026;-39
2023/07/08 02:49:30;;;;;;;7.53;4.82;;;21.20;98.00;;;;;;5013579;28;20030;-38
2023/07/08 02:51:55;;;;;;;8.13;4.50;;;21.20;98.00;;;;;;5013552;28;20022;-39
2023/07/08 02:54:21;;;;;;;6.60;4.20;;;21.20;98.00;;;;;;5013541;28;20408;-40
2023/07/08 02:56:47;;;;;;;8.50;5.00;;;21.20;98.00;;;;;;5013376;28;20500;-42
2023/07/08 02:59:12;;;;;;;6.53;4.80;;;21.20;98.00;;;;;;5014526;28;20592;-39
2023/07/08 03:01:41;;;;;;;7.65;4.70;;;21.20;98.00;;;;;;5013383;28;20097;-40
2023/07/08 03:04:13;;;;;;;6.22;4.78;;;21.20;98.00;;;;;;5012965;28;20045;-39
2023/07/08 03:06:44;;;;;;;8.50;4.82;;;21.20;98.00;;;;;;5013386;28;20022;-42
2023/07/08 03:09:12;;;;;;;6.45;4.68;;;21.20;98.00;;;;;;5013088;28;20444;-39
2023/07/08 03:11:38;;;;;;;6.38;4.82;;;21.20;98.00;;;;;;5013080;28;20410;-40
2023/07/08 03:14:04;;;;;;;9.15;5.00;;;21.20;98.00;;;;;;5013152;28;20492;-39
2023/07/08 03:16:30;;;;;;;6.40;4.70;;;21.20;98.00;;;;;;5013970;28;20041;-40
2023/07/08 03:18:56;;;;;;;7.03;4.97;;;21.20;98.00;;;;;;5012858;28;20022;-39
2023/07/08 03:21:22;;;;;;;9.02;5.20;;;21.20;98.00;;;;;;5012992;28;20022;-39
2023/07/08 03:23:49;;;;;;;7.22;4.60;;;21.20;98.00;;;;;;5012864;28;20300;-41
2023/07/08 03:26:17;;;;;;;6.45;4.68;;;21.10;97.90;;;;;;5013611;28;20370;-39
2023/07/08 03:28:43;;;;;;;6.57;4.90;;;21.10;98.20;;;;;;5013471;28;20404;-42
2023/07/08 03:31:09;;;;;;;7.57;4.70;;;21.20;98.00;;;;;;5012795;28;20018;-39
2023/07/08 03:33:35;;;;;;;9.35;5.35;;;21.20;97.90;;;;;;5012849;28;20033;-39
2023/07/08 03:36:03;;;;;;;7.35;4.90;;;21.20;98.00;;;;;;5013047;28;20030;-40
2023/07/08 03:38:28;;;;;;;7.78;4.32;;;21.10;97.90;;;;;;5013378;28;20038;-41
2023/07/08 03:40:55;;;;;;;7.28;4.72;;;21.10;97.90;;;;;;5013518;28;20053;-40
2023/07/08 03:43:21;;;;;;;7.20;4.75;;;21.10;97.90;;;;;;5012638;28;20477;-39
2023/07/08 03:45:46;;;;;;;6.60;4.10;;;21.10;97.90;;;;;;5012710;28;20414;-38
2023/07/08 03:48:12;;;;;;;8.00;4.60;;;21.10;97.90;;;;;;5011332;28;20100;-41
2023/07/08 03:50:39;;;;;;;7.22;4.78;;;21.10;97.90;;;;;;5012718;28;20033;-40
2023/07/08 03:53:05;;;;;;;5.78;4.53;;;21.10;97.90;;;;;;5012342;28;20531;-40
2023/07/08 03:55:31;;;;;;;8.15;4.78;;;21.10;97.90;;;;;;5012358;28;20026;-38
2023/07/08 03:57:56;;;;;;;7.35;4.30;;;21.10;97.90;;;;;;5012403;28;20026;-39
2023/07/08 04:00:22;;;;;;;7.20;4.90;;;21.10;97.90;;;;;;5012212;28;20036;-39
2023/07/08 04:02:48;;;;;;;7.78;4.70;;;21.10;97.90;;;;;;5012348;28;20022;-41
2023/07/08 04:05:19;;;;;;;8.52;5.00;;;21.10;97.90;;;;;;5012160;28;20425;-40
2023/07/08 04:07:45;;;;;;;6.93;4.93;;;21.10;97.90;;;;;;5012228;28;20404;-40
2023/07/08 04:10:12;;;;;;;6.70;4.40;;;21.10;97.90;;;;;;5011909;28;20037;-40
2023/07/08 04:12:38;;;;;;;6.10;4.70;;;21.10;97.90;;;;;;5012138;28;20037;-39
2023/07/08 04:15:04;;;;;;;7.18;4.82;;;21.10;97.90;;;;;;5011286;28;20025;-40
2023/07/08 04:17:30;;;;;;;6.63;4.88;;;21.10;97.90;;;;;;5012036;28;20105;-39
2023/07/08 04:20:03;;;;;;;8.07;5.13;;;21.10;97.90;;;;;;5011716;28;20133;-40
2023/07/08 04:22:29;;;;;;;7.07;5.00;;;21.10;97.90;;;;;;5004528;28;20488;-39
2023/07/08 04:24:55;;;;;;;8.13;4.40;;;21.10;97.90;;;;;;5011820;28;20030;-40
2023/07/08 04:27:21;;;;;;;6.93;5.05;;;21.10;97.90;;;;;;5012156;28;20029;-39
2023/07/08 04:29:47;;;;;;;7.55;5.00;;;21.10;97.90;;;;;;5011791;28;20105;-38
2023/07/08 04:32:13;;;;;;;7.97;5.32;;;21.10;97.90;;;;;;5012389;28;20029;-40
2023/07/08 04:34:38;;;;;;;7.10;5.15;;;21.10;97.90;;;;;;5011586;28;20018;-38
2023/07/08 04:37:04;;;;;;;9.10;4.82;;;21.10;97.90;;;;;;5011811;28;20401;-39
2023/07/08 04:39:31;;;;;;;6.63;5.13;;;21.10;97.90;;;;;;5012236;28;20026;-40
2023/07/08 04:41:57;;;;;;;7.07;5.15;;;21.10;97.90;;;;;;5013255;28;20226;-40
2023/07/08 04:44:24;;;;;;;10.00;5.55;;;21.10;97.90;;;;;;5011482;28;20164;-38
2023/07/08 04:46:54;;;;;;;7.65;5.45;;;21.10;97.90;;;;;;5011640;28;20030;-40
2023/07/08 04:49:20;;;;;;;7.60;5.38;;;21.10;98.00;;;;;;5011370;28;20396;-40
2023/07/08 04:51:46;;;;;;;7.30;5.25;;;21.10;97.90;;;;;;5011527;28;20116;-38
2023/07/08 04:54:12;;;;;;;7.97;4.72;;;21.10;97.90;;;;;;5011640;28;20109;-41
2023/07/08 04:56:43;;;;;;;6.45;5.15;;;21.10;97.90;;;;;;5011344;28;20061;-40
2023/07/08 04:59:11;;;;;;;7.68;5.13;;;21.10;98.00;;;;;;5011233;28;20076;-37
2023/07/08 05:01:37;;;;;;;7.78;5.40;;;21.10;98.00;;;;;;5011454;28;20054;-40
2023/07/08 05:04:05;;;;;;;9.70;5.30;;;21.10;98.00;;;;;;5011416;28;20491;-39
2023/07/08 05:06:31;;;;;;;7.75;5.03;;;21.10;98.00;;;;;;5011496;28;20026;-40
2023/07/08 05:08:59;;;;;;;10.18;5.25;;;21.10;98.00;;;;;;5011655;28;20022;-39
2023/07/08 05:11:25;;;;;;;7.13;5.32;;;21.10;98.00;;;;;;5011317;28;20033;-40
2023/07/08 05:13:51;;;;;;;6.93;5.22;;;21.10;98.00;;;;;;5011297;28;20030;-39
2023/07/08 05:16:17;;;;;;;7.70;5.57;;;21.10;98.00;;;;;;5011618;28;20085;-40
2023/07/08 05:18:43;;;;;;;6.32;4.72;;;21.10;98.30;;;;;;5011824;28;20025;-41
2023/07/08 05:21:09;;;;;;;7.20;4.88;;;21.10;98.00;;;;;;5011093;28;20110;-39
2023/07/08 05:23:35;;;;;;;8.15;5.28;;;21.10;98.00;;;;;;5011240;28;20030;-38
2023/07/08 05:26:02;;;;;;;7.30;5.13;;;21.10;98.00;;;;;;5013694;28;20034;-40
2023/07/08 05:28:28;;;;;;;7.63;4.78;;;21.10;98.00;;;;;;5015430;28;20440;-39
2023/07/08 05:30:57;;;;;;;7.38;5.15;;;21.10;98.00;;;;;;5015843;28;20091;-40
2023/07/08 05:33:24;;;;;;;6.72;4.80;;;21.10;98.10;;;;;;5016111;28;20052;-39
2023/07/08 05:35:50;;;;;;;6.32;4.88;;;21.10;98.10;;;;;;5014989;28;20105;-41
2023/07/08 05:38:16;;;;;;;6.55;4.88;;;21.20;98.10;;;;;;5015213;28;20156;-40
2023/07/08 05:40:41;;;;;;;8.27;5.20;;;21.10;98.10;;;;;;5015075;28;20107;-40
2023/07/08 05:43:07;;;;;;;8.18;5.57;;;21.10;98.10;;;;;;5015833;28;20034;-39
2023/07/08 05:45:34;;;;;;;6.78;4.95;;;21.10;98.10;;;;;;5014650;28;20062;-39
2023/07/08 05:48:00;;;;;;;7.95;5.05;;;21.10;98.10;;;;;;5015122;28;20107;-39
2023/07/08 05:50:26;;;;;;;5.88;4.78;;;21.10;98.10;;;;;;5014467;28;20065;-40
2023/07/08 05:52:51;;;;;;;6.65;4.65;;;21.10;98.10;;;;;;5014816;28;20022;-40
2023/07/08 05:55:17;;;;;;;7.97;4.78;;;21.10;98.10;;;;;;5014653;28;20036;-39
2023/07/08 05:57:42;;;;;;;7.10;4.60;;;21.10;98.10;;;;;;5015083;28;20018;-38
2023/07/08 06:00:09;;;;;;;7.07;5.25;;;21.10;98.10;;;;;;5015266;28;20096;-38
2023/07/08 06:02:34;;;;;;;7.80;5.10;;;21.10;98.20;;;;;;5015738;28;20080;-40
2023/07/08 06:05:00;;;;;;;6.75;4.75;;;21.10;98.10;;;;;;5014456;28;20022;-38
2023/07/08 06:07:26;;;;;;;7.63;5.38;;;21.10;98.10;;;;;;5015083;28;20493;-38
2023/07/08 06:09:52;;;;;;;7.35;4.82;;;21.10;98.20;;;;;;5014617;28;20022;-39
2023/07/08 06:12:18;;;;;;;7.25;4.93;;;21.10;98.20;;;;;;5014231;28;20034;-38
2023/07/08 06:14:43;;;;;;;6.38;4.65;;;21.10;98.20;;;;;;5014206;28;20072;-39
2023/07/08 06:17:09;;;;;;;13.73;5.80;;;21.10;98.20;;;;;;5014269;28;20029;-40
2023/07/08 06:19:35;;;;;;;14.23;6.15;;;21.10;99.50;;;;;;5013777;28;20124;-40
2023/07/08 06:22:00;;;;;;;9.88;6.10;;;21.10;99.30;;;;;;5014177;28;20037;-37
2023/07/08 06:24:26;;;;;;;9.55;6.20;;;21.10;99.20;;;;;;5014215;28;20026;-39
2023/07/08 06:26:52;;;;;;;12.02;6.80;;;21.10;99.10;;;;;;5014012;28;20054;-40
2023/07/08 06:29:19;;;;;;;10.75;6.72;;;21.10;99.00;;;;;;5014048;28;20481;-39
2023/07/08 06:31:45;;;;;;;10.30;6.63;;;21.10;99.00;;;;;;5014013;28;20033;-41
2023/07/08 06:34:10;;;;;;;7.88;5.50;;;21.10;98.90;;;;;;5014016;28;20026;-39
2023/07/08 06:36:36;;;;;;;10.25;5.93;;;21.10;98.90;;;;;;5014360;28;20049;-40
2023/07/08 06:39:02;;;;;;;7.78;5.68;;;21.10;98.90;;;;;;5013362;28;20053;-39
2023/07/08 06:41:28;;;;;;;8.00;5.55;;;21.10;98.80;;;;;;5014465;28;20036;-39
2023/07/08 06:43:54;;;;;;;7.47;5.50;;;21.10;98.80;;;;;;5013530;28;20026;-39
2023/07/08 06:46:19;;;;;;;8.60;5.68;;;21.10;98.80;;;;;;5014585;28;20026;-37
2023/07/08 06:48:45;;;;;;;10.15;5.72;;;21.20;98.80;;;;;;5014164;28;20033;-39
2023/07/08 06:51:11;;;;;;;9.25;5.93;;;21.10;98.70;;;;;;5013268;28;20026;-41
2023/07/08 06:53:36;;;;;;;9.55;5.85;;;21.10;99.10;;;;;;5014711;28;20105;-41
2023/07/08 06:56:02;;;;;;;10.10;5.45;;;21.10;98.70;;;;;;5013541;28;20433;-39
2023/07/08 06:58:28;;;;;;;8.98;6.05;;;21.10;98.70;;;;;;5013360;28;20026;-41
2023/07/08 07:00:54;;;;;;;8.75;5.32;;;21.10;98.70;;;;;;5013290;28;20060;-40
2023/07/08 07:03:19;;;;;;;8.57;5.07;;;21.10;98.70;;;;;;5013323;28;20475;-40
2023/07/08 07:05:45;;;;;;;7.90;5.40;;;21.10;98.70;;;;;;5013715;28;20030;-40
2023/07/08 07:08:11;;;;;;;7.15;4.97;;;21.20;98.70;;;;;;5014706;28;20026;-38
2023/07/08 07:10:36;;;;;;;7.72;5.18;;;21.10;98.70;;;;;;5013090;28;20079;-40
2023/07/08 07:13:02;;;;;;;8.52;5.38;;;21.10;98.70;;;;;;5013118;28;20067;-39
2023/07/08 07:15:30;;;;;;;9.82;5.85;;;21.20;98.70;;;;;;5013082;28;20095;-40
2023/07/08 07:17:57;;;;;;;7.18;5.30;;;21.20;98.70;;;;;;5014719;28;20025;-39
2023/07/08 07:20:23;;;;;;;7.70;5.05;;;21.20;98.70;;;;;;5013811;28;20038;-39
2023/07/08 07:22:51;;;;;;;6.55;4.78;;;21.20;98.70;;;;;;5013413;28;20508;-39
2023/07/08 07:25:18;;;;;;;7.85;4.72;;;21.20;98.70;;;;;;5013203;28;20040;-40
2023/07/08 07:27:43;;;;;;;7.07;4.90;;;21.20;98.70;;;;;;5012855;28;20026;-39
2023/07/08 07:30:14;;;;;;;7.07;5.15;;;21.20;98.70;;;;;;5012627;28;20378;-39
2023/07/08 07:32:43;;;;;;;6.53;4.57;;;21.20;98.70;;;;;;5012918;28;20079;-39
2023/07/08 07:35:13;;;;;;;6.43;5.13;;;21.20;98.70;;;;;;5012680;28;20386;-39
2023/07/08 07:37:40;;;;;;;8.35;5.15;;;21.20;98.70;;;;;;5013263;28;20022;-39
2023/07/08 07:40:15;;;;;;;6.80;4.80;;;21.20;98.70;;;;;;5012773;28;20471;-40
2023/07/08 07:42:42;;;;;;;6.70;4.63;;;21.20;98.70;;;;;;5012707;28;20026;-40
2023/07/08 07:45:09;;;;;;;6.85;4.80;;;21.20;98.70;;;;;;5012562;28;20493;-40
2023/07/08 07:47:35;;;;;;;7.18;4.70;;;21.20;98.70;;;;;;5012817;28;20064;-39
2023/07/08 07:50:02;;;;;;;5.88;4.50;;;21.20;98.70;;;;;;5011176;28;20389;-41
2023/07/08 07:52:27;;;;;;;6.63;4.57;;;21.20;98.70;;;;;;5012763;28;20085;-39
2023/07/08 07:54:55;;;;;;;6.55;4.25;;;21.20;98.70;;;;;;5012317;28;20068;-40
2023/07/08 07:57:21;;;;;;;6.07;4.47;;;21.20;98.70;;;;;;5013336;28;20030;-39
2023/07/08 07:59:48;;;;;;;6.63;4.50;;;21.20;98.70;;;;;;5012468;28;20536;-39
2023/07/08 08:02:15;;;;;;;6.20;4.45;;;21.20;98.70;;;;;;5013152;28;20066;-39
2023/07/08 08:04:40;;;;;;;6.03;4.22;;;21.20;98.70;;;;;;5012956;28;20389;-39
2023/07/08 08:07:06;;;;;;;5.93;4.40;;;21.20;98.70;;;;;;5012132;28;20045;-40
2023/07/08 08:09:31;;;;;;;6.68;4.90;;;21.20;98.60;;;;;;5011995;28;20049;-41
2023/07/08 08:11:57;;;;;;;6.35;4.65;;;21.20;98.60;;;;;;5012301;28;20117;-39
2023/07/08 08:14:23;;;;;;;6.13;4.53;;;21.20;98.70;;;;;;5012074;28;20018;-38
2023/07/08 08:16:48;;;;;;;6.82;4.38;;;21.20;98.70;;;;;;5012802;28;20022;-40
2023/07/08 08:19:14;;;;;;;5.07;4.15;;;21.20;98.70;;;;;;5012234;28;20034;-41
2023/07/08 08:21:40;;;;;;;5.38;4.22;;;21.20;98.70;;;;;;5011982;28;20417;-40
2023/07/08 08:24:05;;;;;;;5.40;4.03;;;21.20;98.70;;;;;;5011794;28;20371;-41
2023/07/08 08:26:31;;;;;;;6.15;4.18;;;21.20;99.00;;;;;;5012581;28;20022;-40
2023/07/08 08:28:57;;;;;;;5.50;4.18;;;21.20;98.70;;;;;;5011720;28;20100;-39
2023/07/08 08:31:23;;;;;;;5.22;4.20;;;21.20;98.70;;;;;;5011911;28;20026;-39
2023/07/08 08:33:48;;;;;;;6.07;4.43;;;21.20;98.70;;;;;;5013366;28;20022;-39
2023/07/08 08:36:14;;;;;;;5.57;4.03;;;21.20;98.70;;;;;;5012241;28;20377;-39
2023/07/08 08:38:40;;;;;;;6.28;4.07;;;21.20;98.70;;;;;;5011904;28;20022;-41
2023/07/08 08:41:19;;;;;;;5.50;3.83;;;21.20;98.70;;;;;;5012680;28;20556;-40
2023/07/08 08:43:47;;;;;;;5.00;3.80;;;21.20;98.70;;;;;;5013175;28;20022;-39
2023/07/08 08:46:23;;;;;;;5.82;4.40;;;21.20;98.70;;;;;;5012356;28;20392;-39
2023/07/08 08:49:02;;;;;;;5.43;3.70;;;21.30;98.70;;;;;;5012134;28;20101;-38
2023/07/08 08:51:31;;;;;;;5.35;3.88;;;21.20;98.70;;;;;;5011610;28;20424;-42
2023/07/08 08:53:57;;;;;;;5.53;4.15;;;21.20;98.70;;;;;;5011439;28;20044;-39
2023/07/08 08:56:28;;;;;;;5.68;4.10;;;21.20;98.70;;;;;;5012070;28;20029;-39
2023/07/08 08:59:17;;;;;;;5.40;4.20;;;21.20;98.70;;;;;;5011810;28;20105;-40
2023/07/08 09:01:45;;;;;;;5.47;3.72;;;21.20;98.70;;;;;;5012047;28;20085;-39
2023/07/08 09:04:23;;;;;;;5.70;3.70;;;21.20;98.70;;;;;;5013427;28;20089;-41
2023/07/08 09:06:49;;;;;;;5.95;3.92;;;21.20;98.70;;;;;;5010114;28;20069;-39
2023/07/08 09:09:30;;;;;;;5.30;3.88;;;21.20;98.70;;;;;;5011181;28;20033;-40
2023/07/08 09:12:03;;;;;;;5.05;3.85;;;21.30;98.70;;;;;;5011362;28;20030;-38
2023/07/08 09:14:32;;;;;;;6.10;3.80;;;21.30;98.70;;;;;;5011643;28;20022;-37
2023/07/08 09:17:27;;;;;;;5.85;4.13;;;21.30;98.70;;;;;;5011312;28;20030;-38
2023/07/08 09:20:17;;;;;;;4.88;3.90;;;21.30;98.70;;;;;;5011069;28;20034;-39
2023/07/08 09:23:11;;;;;;;6.57;3.60;;;21.30;98.70;;;;;;5011247;28;20026;-40
2023/07/08 09:25:47;;;;;;;4.50;3.67;;;21.30;98.70;;;;;;5011188;28;20034;-40
2023/07/08 09:28:14;;;;;;;4.47;3.33;;;21.30;98.80;;;;;;5011297;28;20065;-40
2023/07/08 09:30:40;;;;;;;5.38;3.78;;;21.30;98.70;;;;;;5011681;28;20026;-40
2023/07/08 09:33:08;;;;;;;5.97;4.03;;;21.30;98.70;;;;;;5011905;28;20049;-40
2023/07/08 09:35:43;;;;;;;5.50;3.70;;;21.30;98.70;;;;;;5011919;28;20057;-38
2023/07/08 09:38:22;;;;;;;5.50;3.72;;;21.30;98.80;;;;;;5011115;28;20474;-40
2023/07/08 09:40:56;;;;;;;5.57;3.22;;;21.30;98.70;;;;;;5011996;28;20072;-40
2023/07/08 09:43:37;;;;;;;5.00;3.50;;;21.30;98.80;;;;;;5011079;28;20034;-40
2023/07/08 09:46:03;;;;;;;6.88;3.85;;;21.30;98.80;;;;;;5013137;28;20069;-39
2023/07/08 09:48:33;;;;;;;5.20;3.55;;;21.30;98.80;;;;;;5011886;28;20073;-40
2023/07/08 09:50:59;;;;;;;4.30;3.28;;;21.30;98.80;;;;;;5011780;28;20448;-39
2023/07/08 09:53:26;;;;;;;4.25;3.35;;;21.30;98.80;;;;;;5011377;28;20022;-38
2023/07/08 09:55:53;;;;;;;4.13;3.42;;;21.40;98.80;;;;;;5011253;28;20386;-40
2023/07/08 09:58:27;;;;;;;5.72;3.15;;;21.40;98.90;;;;;;5011558;28;20025;-40
2023/07/08 10:00:57;;;;;;;;;;;21.40;98.90;;;;;;5011192;28;20037;-40
2023/07/08 10:03:35;;;;;;;5.35;3.50;;;21.40;98.80;;;;;;5011048;28;19906;-38
2023/07/08 10:06:06;;;;;;;4.68;3.22;;;21.40;98.90;;;;;;5010973;28;20551;-39
2023/07/08 10:08:42;;;;;;;6.35;3.50;;;21.40;98.90;;;;;;5011389;28;20034;-40
2023/07/08 10:11:30;;;;;;;4.60;3.08;;;21.40;98.90;;;;;;5010977;28;20493;-38
2023/07/08 10:14:05;;;;;;;4.15;3.15;;;21.40;98.90;;;;;;5014154;28;20050;-39
2023/07/08 10:16:33;;;;;;;4.53;3.17;;;21.40;98.90;;;;;;5015319;28;20026;-39
2023/07/08 10:19:00;;;;;;;4.03;3.30;;;21.40;98.90;;;;;;5014427;28;20114;-39
2023/07/08 10:21:38;;;;;;;5.55;3.47;;;21.40;98.90;;;;;;5014330;28;20048;-40
2023/07/08 10:24:29;;;;;;;3.72;3.10;;;21.40;98.90;;;;;;5014164;28;20033;-40
2023/07/08 10:27:25;;;;;;;3.92;2.88;;;21.40;98.90;;;;;;5014565;28;20021;-39
2023/07/08 10:30:12;;;;;;;5.50;3.00;;;21.40;98.90;;;;;;5014849;28;20440;-38
2023/07/08 10:32:57;;;;;;;5.07;3.15;;;21.40;99.30;;;;;;5014068;28;20160;-39
2023/07/08 10:35:32;;;;;;;4.18;3.22;;;21.40;98.90;;;;;;5014320;28;20492;-39
2023/07/08 10:38:22;;;;;;;3.63;2.88;;;21.40;98.90;;;;;;5014046;28;20301;-39
2023/07/08 10:41:14;;;;;;;4.45;3.05;;;21.50;98.90;;;;;;5007650;28;20033;-38
2023/07/08 10:43:46;;;;;;;5.30;2.40;;;21.50;98.90;;;;;;5010366;28;20480;-38
2023/07/08 10:46:20;;;;;;;5.13;2.97;;;21.50;98.90;;;;;;5011206;28;20432;-40
2023/07/08 10:48:49;;;;;;;;;;;21.70;99.50;;;;;;5014490;28;20739;-42
2023/07/08 10:51:34;;;;;;;6.05;2.50;;;21.70;99.90;;;;;;5013205;28;19909;-38
2023/07/08 10:54:08;;;;;;;5.63;2.85;;;21.70;99.80;;;;;;5013433;28;20033;-39
2023/07/08 10:56:37;;;;;;;;;;;21.70;99.70;;;;;;5014694;28;20477;-38
2023/07/08 10:59:11;;;;;;;3.67;2.58;;;21.70;99.90;;;;;;4995796;28;20399;-40
2023/07/08 11:01:52;;;;;;;4.45;2.35;;;21.70;99.90;;;;;;5014255;28;20065;-39
2023/07/08 11:04:26;;;;;;;5.93;2.25;;;21.70;99.90;;;;;;5013411;28;20080;-40
2023/07/08 11:06:59;;;;;;;6.22;2.63;;;21.70;99.90;;;;;;5013333;28;20026;-40
2023/07/08 11:09:36;;;;;;;4.95;2.42;;;21.70;99.90;;;;;;5013433;28;20030;-43
2023/07/08 11:12:22;;;;;;;7.28;2.50;;;21.70;99.90;;;;;;5013324;28;20030;-39
2023/07/08 11:14:57;;;;;;;3.88;2.40;;;21.70;99.90;;;;;;5013085;28;20504;-40
2023/07/08 11:17:32;;;;;;;3.97;2.60;;;21.70;99.90;;;;;;5013125;28;20400;-40
2023/07/08 11:20:19;;;;;;;3.88;2.05;;;21.80;99.90;;;;;;5013036;28;20044;-39
2023/07/08 11:23:08;;;;;;;4.22;2.63;;;21.80;99.90;;;;;;5013293;28;20051;-39
2023/07/08 11:25:34;;;;;;;3.97;2.28;;;21.80;99.90;;;;;;5012245;28;20069;-42
2023/07/08 11:28:05;;;;;;;5.25;2.20;;;21.80;99.90;;;;;;5012869;28;20452;-40
2023/07/08 11:30:34;;;;;;;3.15;1.92;;;21.80;99.90;;;;;;5012601;28;20105;-43
2023/07/08 11:33:06;;;;;;;7.72;2.15;;;21.80;99.90;;;;;;5013098;28;20109;-40
2023/07/08 11:35:37;;;;;;;4.30;2.35;;;21.80;99.90;;;;;;5012690;28;20101;-39
2023/07/08 11:38:04;;;;;;;3.70;2.30;;;21.80;99.90;;;;;;5013381;28;20057;-40
2023/07/08 11:40:30;;;;;;;3.53;2.35;;;21.80;99.90;;;;;;5012626;28;20026;-39
2023/07/08 11:43:07;;;;;;;3.97;2.22;;;21.80;99.90;;;;;;5012620;28;20028;-40
2023/07/08 11:45:43;;;;;;;3.35;2.30;;;21.80;99.90;;;;;;5012611;28;20032;-40
2023/07/08 11:48:23;;;;;;;3.55;1.98;;;21.80;99.90;;;;;;5012747;28;20037;-38
2023/07/08 11:50:51;;;;;;;3.97;2.25;;;21.80;99.90;;;;;;5012336;28;20032;-40
2023/07/08 11:53:29;;;;;;;4.70;2.13;;;21.80;99.90;;;;;;5012624;28;20541;-40
2023/07/08 11:56:20;;;;;;;3.47;2.30;;;21.80;99.90;;;;;;5012478;28;20116;-40
2023/07/08 11:58:51;;;;;;;3.08;1.92;;;21.80;99.90;;;;;;5012179;28;20022;-39
2023/07/08 12:01:19;;;;;;;3.25;2.22;;;21.80;99.90;;;;;;5012373;28;20022;-40
2023/07/08 12:04:21;;;;;;;2.65;1.83;;;21.80;99.90;;;;;;5012362;28;20108;-40
2023/07/08 12:06:49;;;;;;;3.72;1.80;;;21.80;99.90;;;;;;5012305;28;20068;-39
2023/07/08 12:09:29;;;;;;;4.63;2.00;;;21.80;99.90;;;;;;5012569;28;20049;-39
2023/07/08 12:12:07;;;;;;;4.47;2.25;;;21.80;99.90;;;;;;5012312;28;20034;-40
2023/07/08 12:14:33;;;;;;;4.18;2.10;;;21.80;99.90;;;;;;5012079;28;20018;-40
2023/07/08 12:16:59;;;;;;;4.65;2.40;;;21.80;99.90;;;;;;4994733;28;20109;-41
2023/07/08 12:19:28;;;;;;;3.45;2.08;;;21.80;99.90;;;;;;5011689;28;20030;-40
2023/07/08 12:21:54;;;;;;;2.95;1.98;;;21.80;99.90;;;;;;5012160;28;20071;-39
2023/07/08 12:24:27;;;;;;;2.95;2.03;;;21.80;99.90;;;;;;5012027;28;20030;-41
2023/07/08 12:26:53;;;;;;;2.22;1.75;;;21.80;99.90;;;;;;5012153;28;20093;-40
2023/07/08 12:29:18;;;;;;;3.53;2.20;;;21.80;99.90;;;;;;5011793;28;20523;-39
2023/07/08 12:31:46;;;;;;;4.70;2.13;;;21.90;99.90;;;;;;5011846;28;20034;-39
2023/07/08 12:34:16;;;;;;;3.60;1.90;;;21.80;99.80;;;;;;5011638;28;20017;-40
2023/07/08 12:36:47;;;;;;;4.07;2.25;;;21.80;99.20;;;;;;5011460;28;20030;-40
2023/07/08 12:39:16;;;;;;;4.40;2.05;;;21.80;99.10;;;;;;5011510;28;20018;-40
2023/07/08 12:41:43;;;;;;;4.07;1.77;;;21.80;99.10;;;;;;5011864;28;20037;-40
2023/07/08 12:44:21;;;;;;;3.30;2.10;;;21.80;99.10;;;;;;5011580;28;20045;-40
2023/07/08 12:46:49;;;;;;;3.97;1.92;;;21.80;99.10;;;;;;5012005;28;20410;-40
2023/07/08 12:49:16;;;;;;;3.22;1.70;;;21.80;99.00;;;;;;5011631;28;20049;-40
2023/07/08 12:51:47;;;;;;;3.25;1.80;;;21.80;99.00;;;;;;5011641;28;20436;-39
2023/07/08 12:54:14;;;;;;;4.53;2.05;;;21.80;99.00;;;;;;5011846;28;20030;-40
2023/07/08 12:56:45;;;;;;;2.78;2.08;;;21.80;99.00;;;;;;5011485;28;20025;-38
2023/07/08 12:59:16;;;;;;;2.80;1.90;;;21.80;99.00;;;;;;4993937;28;20056;-40